createdAt,value
2023-04-16T00:00:00.666Z,67.46
2023-04-16T00:02:29.742Z,67.48
2023-04-16T00:04:57.304Z,67.68
2023-04-16T00:07:24.619Z,67.84
2023-04-16T00:09:52.908Z,67.84
2023-04-16T00:12:20.465Z,67.53
2023-04-16T00:14:47.619Z,68.22
2023-04-16T00:17:15.509Z,67.93
2023-04-16T00:19:43.054Z,67.57
2023-04-16T00:22:10.455Z,67.71
2023-04-16T00:24:37.382Z,67.34
2023-04-16T00:27:04.652Z,67.03
2023-04-16T00:29:32.358Z,67.35
2023-04-16T00:31:59.853Z,67.36
2023-04-16T00:34:26.964Z,67.19
2023-04-16T00:36:54.335Z,66.97
2023-04-16T00:39:21.581Z,67.10
2023-04-16T00:41:49.369Z,67.35
2023-04-16T00:44:16.355Z,67.27
2023-04-16T00:46:44.678Z,66.42
2023-04-16T00:49:13.599Z,66.47
2023-04-16T00:51:41.606Z,66.31
2023-04-16T00:54:08.698Z,66.17
2023-04-16T00:56:37.005Z,66.52
2023-04-16T00:59:05.459Z,65.83
2023-04-16T01:01:33.188Z,66.28
2023-04-16T01:04:00.592Z,65.70
2023-04-16T01:06:28.352Z,65.75
2023-04-16T01:08:55.429Z,65.49
2023-04-16T01:11:24.617Z,65.77
2023-04-16T01:13:52.984Z,66.32
2023-04-16T01:16:21.204Z,64.85
2023-04-16T01:18:48.557Z,65.27
2023-04-16T01:21:16.106Z,66.03
2023-04-16T01:23:43.200Z,66.15
2023-04-16T01:26:10.930Z,65.66
2023-04-16T01:28:38.242Z,65.98
2023-04-16T01:31:06.054Z,65.98
2023-04-16T01:33:33.200Z,65.74
2023-04-16T01:36:00.627Z,66.21
2023-04-16T01:38:27.834Z,65.55
2023-04-16T01:40:59.477Z,66.34
2023-04-16T01:43:26.654Z,66.38
2023-04-16T01:46:19.016Z,66.16
2023-04-16T01:48:47.314Z,66.30
2023-04-16T01:51:15.149Z,66.62
2023-04-16T01:53:42.361Z,66.26
2023-04-16T01:56:09.897Z,66.18
2023-04-16T01:58:37.503Z,66.73
2023-04-16T02:01:06.015Z,66.11
2023-04-16T02:03:34.055Z,66.26
2023-04-16T02:06:01.805Z,66.46
2023-04-16T02:08:29.189Z,66.07
2023-04-16T02:10:57.762Z,66.58
2023-04-16T02:13:26.285Z,66.64
2023-04-16T02:15:54.216Z,66.72
2023-04-16T02:18:21.402Z,66.95
2023-04-16T02:20:49.901Z,66.68
2023-04-16T02:23:17.174Z,66.54
2023-04-16T02:25:47.345Z,67.01
2023-04-16T02:28:17.871Z,66.73
2023-04-16T02:30:47.177Z,66.99
2023-04-16T02:33:15.786Z,66.63
2023-04-16T02:35:43.696Z,66.67
2023-04-16T02:38:10.785Z,66.27
2023-04-16T02:40:38.228Z,66.71
2023-04-16T02:43:05.461Z,67.01
2023-04-16T02:45:32.926Z,66.85
2023-04-16T02:48:00.223Z,65.66
2023-04-16T02:50:27.662Z,65.46
2023-04-16T02:52:54.615Z,65.88
2023-04-16T02:55:21.861Z,66.60
2023-04-16T02:57:49.074Z,66.66
2023-04-16T03:00:16.556Z,66.33
2023-04-16T03:02:44.950Z,66.68
2023-04-16T03:05:12.806Z,66.69
2023-04-16T03:07:40.825Z,66.44
2023-04-16T03:10:09.296Z,66.72
2023-04-16T03:12:36.444Z,66.91
2023-04-16T03:15:04.180Z,67.19
2023-04-16T03:17:31.219Z,67.37
2023-04-16T03:19:58.767Z,67.29
2023-04-16T03:22:25.835Z,67.78
2023-04-16T03:24:53.377Z,67.54
2023-04-16T03:27:20.394Z,67.29
2023-04-16T03:29:47.859Z,67.10
2023-04-16T03:32:14.890Z,66.92
2023-04-16T03:34:42.281Z,66.54
2023-04-16T03:37:12.083Z,66.52
2023-04-16T03:39:39.646Z,66.20
2023-04-16T03:42:06.684Z,66.09
2023-04-16T03:44:34.398Z,65.82
2023-04-16T03:47:01.579Z,66.06
2023-04-16T03:49:28.857Z,65.90
2023-04-16T03:51:55.865Z,66.57
2023-04-16T03:54:23.211Z,66.31
2023-04-16T03:56:50.246Z,66.42
2023-04-16T03:59:17.889Z,66.24
2023-04-16T04:01:45.126Z,66.87
2023-04-16T04:04:12.761Z,67.20
2023-04-16T04:06:39.857Z,67.38
2023-04-16T04:09:07.559Z,67.34
2023-04-16T04:11:36.072Z,67.99
2023-04-16T04:14:05.447Z,67.76
2023-04-16T04:16:33.342Z,67.60
2023-04-16T04:19:00.979Z,67.22
2023-04-16T04:21:30.850Z,66.92
2023-04-16T04:23:58.736Z,66.91
2023-04-16T04:26:26.345Z,67.26
2023-04-16T04:28:54.080Z,67.08
2023-04-16T04:31:21.449Z,67.09
2023-04-16T04:33:49.334Z,67.24
2023-04-16T04:36:16.926Z,67.52
2023-04-16T04:38:44.426Z,67.36
2023-04-16T04:41:11.571Z,67.34
2023-04-16T04:43:38.946Z,67.90
2023-04-16T04:46:06.027Z,67.45
2023-04-16T04:48:33.505Z,67.62
2023-04-16T04:51:02.980Z,68.38
2023-04-16T04:53:32.372Z,68.14
2023-04-16T04:56:10.987Z,67.78
2023-04-16T04:58:39.799Z,67.81
2023-04-16T05:01:07.070Z,68.09
2023-04-16T05:03:34.602Z,68.18
2023-04-16T05:06:01.685Z,67.89
2023-04-16T05:08:29.052Z,68.11
2023-04-16T05:10:56.362Z,67.59
2023-04-16T05:13:23.807Z,67.32
2023-04-16T05:15:50.816Z,67.46
2023-04-16T05:18:18.270Z,66.65
2023-04-16T05:20:45.361Z,66.74
2023-04-16T05:23:12.840Z,66.09
2023-04-16T05:25:39.979Z,66.22
2023-04-16T05:28:07.344Z,66.44
2023-04-16T05:30:34.390Z,65.57
2023-04-16T05:33:01.676Z,65.33
2023-04-16T05:35:28.823Z,66.21
2023-04-16T05:37:56.476Z,65.82
2023-04-16T05:40:23.503Z,65.40
2023-04-16T05:42:50.942Z,65.29
2023-04-16T05:45:18.134Z,64.56
2023-04-16T05:47:45.643Z,64.08
2023-04-16T05:50:12.737Z,64.01
2023-04-16T05:52:40.028Z,64.09
2023-04-16T05:55:07.351Z,62.96
2023-04-16T05:57:34.741Z,63.72
2023-04-16T06:00:01.687Z,62.60
2023-04-16T06:02:31.801Z,63.25
2023-04-16T06:04:59.129Z,64.42
2023-04-16T06:07:27.181Z,64.41
2023-04-16T06:09:55.324Z,65.46
2023-04-16T06:12:22.734Z,65.23
2023-04-16T06:14:50.038Z,65.21
2023-04-16T06:17:17.443Z,65.22
2023-04-16T06:19:45.537Z,65.26
2023-04-16T06:22:13.061Z,64.42
2023-04-16T06:24:40.284Z,64.49
2023-04-16T06:27:07.884Z,64.14
2023-04-16T06:29:41.196Z,63.89
2023-04-16T06:32:09.235Z,63.43
2023-04-16T06:34:37.349Z,63.03
2023-04-16T06:37:04.782Z,62.78
2023-04-16T06:39:33.262Z,63.45
2023-04-16T06:42:01.504Z,63.15
2023-04-16T06:44:28.552Z,62.17
2023-04-16T06:46:56.096Z,61.50
2023-04-16T06:49:23.291Z,61.67
2023-04-16T06:51:50.756Z,60.70
2023-04-16T06:54:18.973Z,60.71
2023-04-16T06:56:46.275Z,60.24
2023-04-16T06:59:13.606Z,60.99
2023-04-16T07:01:42.077Z,60.49
2023-04-16T07:04:09.684Z,60.92
2023-04-16T07:06:37.240Z,60.51
2023-04-16T07:09:04.488Z,60.30
2023-04-16T07:11:31.930Z,59.96
2023-04-16T07:13:59.165Z,59.86
2023-04-16T07:16:26.800Z,59.33
2023-04-16T07:18:53.871Z,58.88
2023-04-16T07:21:22.389Z,59.66
2023-04-16T07:23:49.338Z,59.10
2023-04-16T07:26:16.870Z,59.00
2023-04-16T07:28:44.256Z,59.26
2023-04-16T07:31:11.868Z,59.16
2023-04-16T07:33:39.002Z,60.15
2023-04-16T07:36:07.355Z,59.67
2023-04-16T07:38:34.796Z,60.02
2023-04-16T07:41:02.869Z,59.19
2023-04-16T07:43:30.108Z,59.46
2023-04-16T07:45:57.371Z,59.08
2023-04-16T07:48:24.588Z,59.10
2023-04-16T07:50:52.573Z,59.04
2023-04-16T07:53:19.828Z,59.12
2023-04-16T07:55:47.316Z,58.55
2023-04-16T07:58:14.856Z,58.45
2023-04-16T08:00:42.412Z,58.47
2023-04-16T08:03:09.843Z,58.46
2023-04-16T08:05:37.227Z,58.07
2023-04-16T08:08:04.468Z,58.05
2023-04-16T08:10:31.861Z,57.02
2023-04-16T08:13:01.661Z,56.69
2023-04-16T08:15:29.543Z,56.90
2023-04-16T08:17:56.760Z,57.70
2023-04-16T08:20:24.232Z,56.54
2023-04-16T08:22:51.426Z,56.91
2023-04-16T08:25:18.915Z,57.00
2023-04-16T08:27:46.024Z,57.26
2023-04-16T08:30:13.329Z,56.87
2023-04-16T08:32:40.531Z,56.75
2023-04-16T08:35:08.393Z,56.09
2023-04-16T08:37:35.506Z,56.73
2023-04-16T08:40:03.626Z,56.46
2023-04-16T08:42:41.135Z,56.86
2023-04-16T08:45:16.195Z,56.30
2023-04-16T08:47:52.312Z,57.01
2023-04-16T08:50:30.430Z,56.76
2023-04-16T08:53:00.862Z,56.44
2023-04-16T08:55:42.061Z,56.85
2023-04-16T08:58:18.652Z,57.06
2023-04-16T09:00:47.011Z,56.24
2023-04-16T09:03:14.172Z,56.06
2023-04-16T09:05:44.057Z,56.19
2023-04-16T09:08:11.267Z,55.95
2023-04-16T09:10:38.662Z,55.33
2023-04-16T09:13:05.829Z,55.43
2023-04-16T09:15:35.724Z,55.40
2023-04-16T09:18:02.703Z,55.31
2023-04-16T09:20:30.133Z,54.52
2023-04-16T09:22:57.266Z,55.28
2023-04-16T09:25:26.466Z,55.30
2023-04-16T09:27:53.708Z,55.09
2023-04-16T09:30:27.169Z,55.15
2023-04-16T09:33:23.346Z,55.00
2023-04-16T09:35:53.143Z,54.62
2023-04-16T09:38:22.445Z,53.83
2023-04-16T09:41:08.041Z,53.73
2023-04-16T09:43:35.806Z,53.79
2023-04-16T09:46:08.252Z,53.85
2023-04-16T09:48:36.109Z,53.45
2023-04-16T09:51:07.668Z,53.82
2023-04-16T09:53:36.072Z,53.29
2023-04-16T09:56:07.694Z,52.79
2023-04-16T09:58:38.620Z,53.38
2023-04-16T10:01:13.851Z,52.55
2023-04-16T10:03:41.318Z,52.68
2023-04-16T10:06:20.806Z,51.46
2023-04-16T10:08:53.180Z,50.32
2023-04-16T10:11:21.459Z,50.12
2023-04-16T10:13:48.893Z,50.15
2023-04-16T10:16:16.651Z,50.52
2023-04-16T10:18:46.945Z,49.93
2023-04-16T10:21:16.381Z,49.87
2023-04-16T10:23:44.311Z,49.35
2023-04-16T10:26:11.817Z,49.75
2023-04-16T10:28:39.491Z,49.72
2023-04-16T10:31:09.775Z,48.87
2023-04-16T10:33:41.351Z,47.92
2023-04-16T10:36:13.673Z,48.35
2023-04-16T10:38:52.479Z,47.93
2023-04-16T10:41:23.034Z,47.92
2023-04-16T10:43:51.660Z,47.14
2023-04-16T10:46:31.766Z,47.49
2023-04-16T10:49:13.345Z,47.09
2023-04-16T10:51:41.454Z,46.30
2023-04-16T10:54:08.367Z,45.80
2023-04-16T10:56:37.592Z,45.92
2023-04-16T10:59:10.908Z,45.64
2023-04-16T11:01:46.627Z,46.43
2023-04-16T11:04:19.786Z,45.80
2023-04-16T11:07:14.980Z,46.58
2023-04-16T11:10:00.728Z,46.17
2023-04-16T11:12:46.547Z,45.83
2023-04-16T11:15:15.535Z,44.96
2023-04-16T11:17:48.532Z,45.39
2023-04-16T11:20:20.565Z,45.16
2023-04-16T11:22:56.160Z,44.28
2023-04-16T11:25:31.739Z,43.95
2023-04-16T11:27:59.424Z,43.81
2023-04-16T11:30:38.616Z,43.83
2023-04-16T11:33:09.300Z,43.21
2023-04-16T11:35:36.683Z,43.62
2023-04-16T11:38:06.051Z,42.71
2023-04-16T11:40:33.976Z,43.50
2023-04-16T11:43:15.542Z,42.21
2023-04-16T11:46:10.263Z,42.79
2023-04-16T11:48:52.753Z,43.23
2023-04-16T11:51:20.733Z,42.14
2023-04-16T11:53:53.453Z,42.71
2023-04-16T11:56:29.569Z,42.57
2023-04-16T11:59:16.092Z,43.25
2023-04-16T12:01:56.133Z,42.78
2023-04-16T12:04:27.068Z,42.57
2023-04-16T12:07:15.007Z,42.27
2023-04-16T12:09:44.369Z,42.07
2023-04-16T12:12:32.649Z,42.50
2023-04-16T12:15:03.958Z,41.78
2023-04-16T12:17:36.991Z,41.31
2023-04-16T12:20:13.637Z,41.72
2023-04-16T12:22:47.364Z,41.09
2023-04-16T12:25:17.546Z,41.51
2023-04-16T12:27:46.521Z,40.99
2023-04-16T12:30:19.354Z,40.58
2023-04-16T12:32:52.477Z,41.47
2023-04-16T12:35:31.646Z,41.03
2023-04-16T12:38:00.268Z,39.64
2023-04-16T12:40:27.828Z,39.66
2023-04-16T12:42:55.602Z,38.55
2023-04-16T12:45:23.167Z,37.80
2023-04-16T12:47:50.761Z,37.70
2023-04-16T12:50:18.614Z,38.26
2023-04-16T12:52:45.684Z,37.61
2023-04-16T12:55:14.263Z,36.91
2023-04-16T12:57:41.832Z,36.73
2023-04-16T13:00:10.971Z,37.18
2023-04-16T13:02:38.407Z,37.39
2023-04-16T13:05:06.570Z,37.76
2023-04-16T13:07:34.201Z,37.99
2023-04-16T13:10:01.969Z,37.80
2023-04-16T13:12:29.126Z,37.32
2023-04-16T13:14:56.547Z,37.21
2023-04-16T13:17:23.561Z,37.01
2023-04-16T13:19:51.051Z,37.60
2023-04-16T13:22:18.443Z,37.81
2023-04-16T13:24:46.513Z,37.28
2023-04-16T13:27:16.129Z,37.43
2023-04-16T13:29:43.431Z,36.61
2023-04-16T13:32:10.551Z,37.59
2023-04-16T13:34:40.285Z,37.97
2023-04-16T13:37:08.244Z,38.69
2023-04-16T13:39:36.162Z,38.54
2023-04-16T13:42:03.593Z,38.61
2023-04-16T13:44:31.115Z,39.37
2023-04-16T13:46:59.075Z,39.11
2023-04-16T13:49:26.870Z,40.27
2023-04-16T13:51:54.747Z,40.14
2023-04-16T13:54:23.378Z,40.37
2023-04-16T13:56:51.941Z,40.25
2023-04-16T13:59:21.052Z,39.66
2023-04-16T14:01:48.538Z,40.11
2023-04-16T14:04:16.140Z,40.08
2023-04-16T14:06:43.248Z,39.67
2023-04-16T14:09:11.179Z,39.59
2023-04-16T14:11:38.367Z,39.66
2023-04-16T14:14:06.122Z,39.51
2023-04-16T14:16:33.953Z,39.44
2023-04-16T14:19:01.341Z,39.10
2023-04-16T14:21:28.776Z,38.54
2023-04-16T14:23:56.248Z,38.63
2023-04-16T14:26:23.429Z,38.74
2023-04-16T14:28:51.582Z,39.19
2023-04-16T14:31:20.138Z,39.29
2023-04-16T14:33:52.734Z,39.48
2023-04-16T14:36:20.491Z,39.78
2023-04-16T14:38:48.247Z,40.57
2023-04-16T14:41:15.298Z,40.18
2023-04-16T14:43:44.378Z,40.61
2023-04-16T14:46:11.575Z,40.04
2023-04-16T14:48:39.043Z,39.71
2023-04-16T14:51:07.282Z,39.99
2023-04-16T14:53:36.616Z,38.93
2023-04-16T14:56:04.763Z,39.82
2023-04-16T14:58:33.857Z,39.24
2023-04-16T15:01:02.289Z,38.02
2023-04-16T15:03:31.381Z,37.87
2023-04-16T15:05:58.631Z,38.25
2023-04-16T15:08:26.161Z,38.08
2023-04-16T15:10:53.130Z,38.78
2023-04-16T15:13:20.972Z,39.17
2023-04-16T15:15:48.420Z,38.86
2023-04-16T15:18:16.473Z,38.92
2023-04-16T15:20:43.659Z,38.97
2023-04-16T15:23:11.235Z,39.49
2023-04-16T15:25:38.484Z,38.58
2023-04-16T15:28:06.818Z,38.24
2023-04-16T15:30:34.374Z,38.60
2023-04-16T15:33:01.953Z,37.94
2023-04-16T15:35:29.119Z,37.63
2023-04-16T15:37:56.438Z,37.03
2023-04-16T15:40:25.770Z,37.02
2023-04-16T15:42:53.055Z,36.78
2023-04-16T15:45:21.129Z,36.85
2023-04-16T15:47:51.342Z,37.37
2023-04-16T15:50:20.084Z,37.61
2023-04-16T15:52:48.713Z,37.88
2023-04-16T15:55:18.527Z,38.99
2023-04-16T15:57:46.041Z,39.44
2023-04-16T16:00:14.702Z,39.70
2023-04-16T16:02:45.615Z,40.44
2023-04-16T16:05:16.943Z,40.63
2023-04-16T16:07:44.572Z,40.20
2023-04-16T16:10:13.335Z,39.73
2023-04-16T16:12:41.582Z,39.01
2023-04-16T16:15:11.305Z,37.84
2023-04-16T16:17:39.425Z,37.21
2023-04-16T16:20:10.189Z,36.49
2023-04-16T16:22:38.377Z,35.63
2023-04-16T16:25:07.300Z,35.63
2023-04-16T16:27:36.689Z,35.22
2023-04-16T16:30:06.654Z,34.49
2023-04-16T16:32:34.177Z,34.30
2023-04-16T16:35:01.750Z,34.45
2023-04-16T16:37:30.869Z,33.89
2023-04-16T16:39:58.032Z,33.47
2023-04-16T16:42:26.657Z,32.83
2023-04-16T16:44:55.378Z,33.53
2023-04-16T16:47:24.884Z,34.42
2023-04-16T16:49:52.295Z,34.12
2023-04-16T16:52:23.916Z,33.94
2023-04-16T16:54:52.925Z,33.89
2023-04-16T16:57:20.397Z,34.09
2023-04-16T16:59:48.614Z,34.26
2023-04-16T17:02:17.093Z,34.83
2023-04-16T17:04:44.805Z,35.09
2023-04-16T17:07:12.363Z,36.30
2023-04-16T17:09:40.977Z,36.68
2023-04-16T17:12:08.597Z,37.50
2023-04-16T17:14:36.006Z,38.03
2023-04-16T17:17:03.709Z,38.90
2023-04-16T17:19:31.100Z,39.27
2023-04-16T17:21:58.585Z,40.07
2023-04-16T17:24:26.837Z,40.09
2023-04-16T17:26:54.379Z,40.21
2023-04-16T17:29:25.932Z,40.90
2023-04-16T17:31:53.882Z,41.12
2023-04-16T17:34:21.838Z,40.98
2023-04-16T17:36:52.327Z,40.92
2023-04-16T17:39:21.018Z,41.55
2023-04-16T17:41:54.217Z,41.63
2023-04-16T17:44:23.152Z,41.95
2023-04-16T17:46:51.403Z,42.60
2023-04-16T17:49:19.107Z,43.07
2023-04-16T17:51:46.890Z,43.37
2023-04-16T17:54:14.370Z,43.69
2023-04-16T17:56:42.917Z,44.57
2023-04-16T17:59:11.598Z,44.77
2023-04-16T18:01:39.709Z,45.54
2023-04-16T18:04:07.762Z,46.49
2023-04-16T18:06:36.933Z,46.82
2023-04-16T18:09:07.294Z,47.16
2023-04-16T18:11:37.687Z,47.38
2023-04-16T18:14:05.780Z,47.98
2023-04-16T18:16:33.622Z,48.23
2023-04-16T18:19:01.141Z,48.96
2023-04-16T18:21:31.959Z,49.19
2023-04-16T18:24:01.029Z,49.25
2023-04-16T18:26:29.859Z,49.21
2023-04-16T18:28:57.755Z,49.80
2023-04-16T18:31:25.542Z,49.82
2023-04-16T18:33:58.153Z,49.78
2023-04-16T18:36:27.522Z,50.04
2023-04-16T18:39:02.149Z,50.33
2023-04-16T18:41:31.429Z,51.09
2023-04-16T18:43:59.041Z,51.40
2023-04-16T18:46:27.596Z,52.06
2023-04-16T18:48:55.372Z,52.23
2023-04-16T18:51:22.891Z,52.55
2023-04-16T18:53:51.429Z,52.42
2023-04-16T18:56:19.137Z,52.97
2023-04-16T18:58:47.824Z,52.83
2023-04-16T19:01:16.682Z,53.34
2023-04-16T19:03:44.208Z,53.36
2023-04-16T19:06:11.612Z,53.46
2023-04-16T19:08:39.109Z,53.90
2023-04-16T19:11:07.176Z,54.08
2023-04-16T19:13:34.467Z,54.44
2023-04-16T19:16:02.308Z,54.22
2023-04-16T19:18:29.429Z,54.46
2023-04-16T19:21:01.179Z,54.44
2023-04-16T19:23:28.894Z,54.85
2023-04-16T19:25:57.161Z,54.79
2023-04-16T19:28:25.622Z,54.73
2023-04-16T19:30:54.154Z,54.92
2023-04-16T19:33:21.461Z,55.07
2023-04-16T19:35:49.930Z,55.37
2023-04-16T19:38:16.880Z,55.26
2023-04-16T19:40:46.964Z,55.58
2023-04-16T19:43:14.218Z,55.82
2023-04-16T19:45:46.599Z,55.72
2023-04-16T19:48:14.611Z,56.29
2023-04-16T19:50:42.986Z,56.35
2023-04-16T19:53:12.294Z,56.16
2023-04-16T19:55:40.945Z,56.61
2023-04-16T19:58:09.281Z,57.09
2023-04-16T20:00:40.872Z,57.03
2023-04-16T20:03:08.221Z,57.25
2023-04-16T20:05:35.760Z,57.97
2023-04-16T20:08:02.865Z,57.74
2023-04-16T20:10:31.645Z,57.92
2023-04-16T20:12:59.059Z,57.79
2023-04-16T20:15:28.824Z,57.85
2023-04-16T20:17:56.467Z,58.15
2023-04-16T20:20:23.874Z,58.01
2023-04-16T20:22:51.035Z,58.09
2023-04-16T20:25:21.758Z,58.37
2023-04-16T20:27:50.136Z,57.98
2023-04-16T20:30:17.595Z,58.58
2023-04-16T20:32:44.858Z,58.61
2023-04-16T20:35:12.840Z,58.46
2023-04-16T20:37:42.339Z,58.55
2023-04-16T20:40:11.085Z,58.43
2023-04-16T20:42:38.473Z,58.26
2023-04-16T20:45:07.462Z,58.42
2023-04-16T20:47:35.218Z,58.96
2023-04-16T20:50:03.935Z,58.44
2023-04-16T20:52:31.693Z,58.51
2023-04-16T20:54:59.301Z,58.50
2023-04-16T20:57:28.707Z,58.50
2023-04-16T20:59:56.565Z,58.78
2023-04-16T21:02:24.591Z,58.32
2023-04-16T21:04:52.495Z,58.89
2023-04-16T21:07:19.998Z,59.19
2023-04-16T21:09:48.921Z,59.18
2023-04-16T21:12:16.864Z,59.55
2023-04-16T21:14:45.089Z,59.19
2023-04-16T21:17:12.267Z,59.54
2023-04-16T21:19:40.265Z,59.72
2023-04-16T21:22:07.482Z,59.34
2023-04-16T21:24:35.061Z,59.13
2023-04-16T21:27:02.419Z,59.44
2023-04-16T21:29:30.151Z,59.13
2023-04-16T21:31:57.677Z,58.79
2023-04-16T21:34:25.327Z,58.85
2023-04-16T21:36:52.485Z,58.91
2023-04-16T21:39:21.761Z,58.94
2023-04-16T21:41:49.010Z,58.67
2023-04-16T21:44:16.907Z,58.68
2023-04-16T21:46:44.036Z,59.15
2023-04-16T21:49:11.886Z,59.10
2023-04-16T21:51:40.723Z,59.00
2023-04-16T21:54:08.245Z,58.81
2023-04-16T21:56:35.302Z,59.10
2023-04-16T21:59:02.719Z,59.39
2023-04-16T22:01:29.944Z,59.59
2023-04-16T22:03:57.528Z,59.43
2023-04-16T22:06:26.171Z,59.58
2023-04-16T22:08:53.649Z,59.50
2023-04-16T22:11:23.275Z,60.14
2023-04-16T22:13:50.824Z,60.28
2023-04-16T22:16:18.816Z,60.45
2023-04-16T22:18:47.713Z,60.35
2023-04-16T22:21:15.857Z,60.85
2023-04-16T22:23:46.932Z,60.75
2023-04-16T22:26:14.940Z,60.64
2023-04-16T22:28:43.093Z,60.99
2023-04-16T22:31:11.528Z,61.50
2023-04-16T22:33:39.480Z,61.32
2023-04-16T22:36:07.067Z,62.07
2023-04-16T22:38:34.755Z,61.69
2023-04-16T22:41:02.106Z,62.28
2023-04-16T22:43:29.774Z,62.33
2023-04-16T22:46:06.702Z,62.10
2023-04-16T22:48:40.402Z,62.44
2023-04-16T22:51:09.357Z,62.82
2023-04-16T22:53:36.969Z,62.39
2023-04-16T22:56:05.011Z,62.36
2023-04-16T22:58:32.512Z,62.18
2023-04-16T23:01:01.665Z,62.75
2023-04-16T23:03:29.327Z,62.44
2023-04-16T23:05:56.576Z,62.79
2023-04-16T23:08:24.050Z,62.81
2023-04-16T23:10:51.142Z,63.16
2023-04-16T23:13:18.399Z,63.05
2023-04-16T23:15:47.376Z,63.06
2023-04-16T23:18:14.732Z,63.61
2023-04-16T23:20:41.938Z,63.44
2023-04-16T23:23:09.370Z,63.63
2023-04-16T23:25:37.872Z,63.92
2023-04-16T23:28:08.033Z,63.69
2023-04-16T23:30:36.161Z,63.66
2023-04-16T23:33:04.752Z,63.94
2023-04-16T23:35:32.292Z,63.67
2023-04-16T23:38:00.750Z,63.49
2023-04-16T23:40:28.158Z,63.88
2023-04-16T23:42:56.035Z,64.17
2023-04-16T23:45:26.053Z,64.36
2023-04-16T23:47:54.318Z,64.57
2023-04-16T23:50:21.448Z,64.82
2023-04-16T23:52:48.901Z,65.03
2023-04-16T23:55:16.357Z,64.53
2023-04-16T23:57:44.328Z,64.72
